KAFW

Fort Worth Alliance Airport

Fort Worth, Texas, USA
METAR KAFW 221353Z 31005KT 10SM BKN006 OVC017 21/21 A2990 RMK AO2 RAB00E22 SLP116 P0000 T02110206 $
Observed Flight Rules
Sep-22 @ 13:53 UTC (an hour ago) Instrument Flight Rules
Wind Visibility Clouds
310° at 5 knots 10 miles
Temperatures Readings Precipitation
Current 21°C / 70°F
Dewpoint 21°C / 70°F
Humidity 100%
Altimeter 29.9" Hg
Pressure 1011.6 hPa
Elevation 233
Current Rain 0.005
METAR KAFW 221353Z 31005KT 10SM BKN006 OVC017 21/21 A2990 RMK AO2 RAB00E22 SLP116 P0000 T02110206 $
Observed Flight Rules
Sep-22 @ 13:53 UTC
(an hour ago)
IFR
Wind Visibility
310° at 5 knots 10 miles
Clouds
Temperature Dewpoint
21°C / 70°F 21°C / 70°F
Humidity Altimeter Pressure
100% 29.9" Hg 1011.6 hPa
Current Rain
0.005